Time;durP1;ratioP1;P1;durP2;ratioP2;P2;SDS_P1;SDS_P2;PMS_P1;PMS_P2;Temp;Humidity;BMP_temperature;BMP_pressure;BME280_temperature;BME280_humidity;BME280_pressure;Samples;Min_cycle;Max_cycle;Signal;HPM_P1;HPM_P2
2023/08/25 06:34:25;;;;;;;8.32;6.25;;;;;;;;;;10580265;28;20032;-87
2023/08/25 06:39:28;;;;;;;5.80;4.85;;;;;;;;;;10563355;28;20046;-87
2023/08/25 06:44:33;;;;;;;6.72;4.95;;;;;;;;;;10562294;28;20032;-88
2023/08/25 06:49:35;;;;;;;12.55;10.55;;;;;;;;;;10560867;28;20044;-87
2023/08/25 06:54:39;;;;;;;7.95;6.78;;;;;;;;;;10559807;28;20035;-88
2023/08/25 07:05:23;;;;;;;4.88;3.50;;;;;;;;;;10552332;28;20023;-84
2023/08/25 07:10:24;;;;;;;7.47;5.40;;;;;;;;;;10533783;28;20024;-86
2023/08/25 07:15:56;;;;;;;7.35;5.95;;;;;;;;;;10534597;28;20100;-87
2023/08/25 07:21:02;;;;;;;5.68;4.00;;;;;;;;;;10553862;28;20032;-86
2023/08/25 07:26:03;;;;;;;6.82;4.20;;;;;;;;;;10539862;28;20020;-85
2023/08/25 07:31:04;;;;;;;7.90;4.45;;;;;;;;;;10554491;28;20084;-86
2023/08/25 07:36:05;;;;;;;9.02;5.07;;;;;;;;;;10540716;28;20020;-86
2023/08/25 07:41:07;;;;;;;7.60;5.43;;;;;;;;;;10541511;28;20024;-86
2023/08/25 07:46:08;;;;;;;9.98;4.82;;;;;;;;;;10546077;28;20031;-85
2023/08/25 07:51:10;;;;;;;6.88;5.03;;;;;;;;;;10558426;28;20083;-85
2023/08/25 07:56:11;;;;;;;6.43;4.53;;;;;;;;;;10556006;28;20032;-86
2023/08/25 08:01:12;;;;;;;9.52;5.22;;;;;;;;;;10573263;28;20062;-85
2023/08/25 08:06:13;;;;;;;6.32;4.55;;;;;;;;;;10542751;28;20063;-85
2023/08/25 08:11:14;;;;;;;8.45;5.03;;;;;;;;;;10539208;28;20119;-85
2023/08/25 08:16:15;;;;;;;6.55;4.63;;;;;;;;;;10540611;28;20046;-85
2023/08/25 08:21:17;;;;;;;6.47;4.30;;;;;;;;;;10539211;28;20024;-85
2023/08/25 08:26:18;;;;;;;6.90;4.50;;;;;;;;;;10539043;28;20020;-86
2023/08/25 08:31:19;;;;;;;8.40;5.38;;;;;;;;;;10539170;28;20028;-86
2023/08/25 08:36:20;;;;;;;7.13;4.53;;;;;;;;;;10538031;28;20123;-84
2023/08/25 08:41:21;;;;;;;5.80;4.00;;;;;;;;;;10538653;28;20055;-85
2023/08/25 08:46:23;;;;;;;8.93;4.40;;;;;;;;;;10562578;28;20020;-86
2023/08/25 08:51:25;;;;;;;6.03;4.32;;;;;;;;;;10531190;28;20114;-86
2023/08/25 08:56:27;;;;;;;7.13;4.82;;;;;;;;;;10530750;28;20028;-85
2023/08/25 09:01:30;;;;;;;6.60;4.32;;;;;;;;;;10566993;28;20016;-87
2023/08/25 09:06:35;;;;;;;6.10;3.80;;;;;;;;;;10555562;28;20117;-88
2023/08/25 09:11:36;;;;;;;6.30;3.83;;;;;;;;;;10531283;28;20057;-86
2023/08/25 09:16:37;;;;;;;6.38;4.10;;;;;;;;;;10531013;28;20062;-85
2023/08/25 09:21:44;;;;;;;6.25;3.55;;;;;;;;;;10527149;28;20490;-86
2023/08/25 09:26:46;;;;;;;6.28;4.38;;;;;;;;;;10528863;28;20115;-86
2023/08/25 09:31:59;;;;;;;7.10;4.13;;;;;;;;;;10530368;28;20483;-88
2023/08/25 09:37:25;;;;;;;6.30;4.30;;;;;;;;;;10534244;28;20101;-88
2023/08/25 09:42:37;;;;;;;6.18;4.25;;;;;;;;;;10507235;28;20117;-88
2023/08/25 09:48:02;;;;;;;5.60;3.90;;;;;;;;;;10517808;28;20042;-89
2023/08/25 09:53:07;;;;;;;4.97;3.20;;;;;;;;;;10532691;28;20103;-88
2023/08/25 09:58:19;;;;;;;5.45;3.63;;;;;;;;;;10548328;28;20103;-88
2023/08/25 10:09:09;;;;;;;6.38;4.13;;;;;;;;;;10545198;28;20130;-89
2023/08/25 10:14:32;;;;;;;4.82;3.30;;;;;;;;;;10550584;28;20036;-87
2023/08/25 10:25:16;;;;;;;5.22;3.58;;;;;;;;;;10533184;28;20040;-88
2023/08/25 10:30:45;;;;;;;5.28;3.63;;;;;;;;;;10540837;28;20028;-88
2023/08/25 10:35:48;;;;;;;7.53;4.00;;;;;;;;;;10565642;28;20043;-87
2023/08/25 10:41:13;;;;;;;5.75;3.80;;;;;;;;;;10548523;28;20144;-88
2023/08/25 10:46:36;;;;;;;7.07;4.07;;;;;;;;;;10555611;28;20379;-87
2023/08/25 10:57:48;;;;;;;6.05;3.50;;;;;;;;;;10552083;28;20036;-88
2023/08/25 11:02:50;;;;;;;4.72;3.42;;;;;;;;;;10533574;28;20039;-89
2023/08/25 11:07:51;;;;;;;4.70;3.20;;;;;;;;;;10532922;28;20440;-87
2023/08/25 11:12:53;;;;;;;5.55;3.28;;;;;;;;;;10532367;28;20020;-87
2023/08/25 11:17:54;;;;;;;4.22;3.30;;;;;;;;;;10530406;28;20030;-86
2023/08/25 11:22:56;;;;;;;5.00;3.13;;;;;;;;;;10530814;28;20020;-86
2023/08/25 11:27:57;;;;;;;5.47;3.05;;;;;;;;;;10531510;28;20031;-87
2023/08/25 11:32:58;;;;;;;3.70;2.45;;;;;;;;;;10536101;28;20024;-89
2023/08/25 11:38:02;;;;;;;5.13;2.78;;;;;;;;;;10537833;28;20051;-86
2023/08/25 11:43:03;;;;;;;4.43;2.42;;;;;;;;;;10530075;28;20419;-87
2023/08/25 11:48:04;;;;;;;6.07;2.53;;;;;;;;;;10531924;28;20078;-86
2023/08/25 11:53:07;;;;;;;7.30;2.90;;;;;;;;;;10530674;28;20543;-87
2023/08/25 11:58:09;;;;;;;6.40;2.35;;;;;;;;;;10530404;28;20050;-87
2023/08/25 12:03:14;;;;;;;6.38;2.40;;;;;;;;;;10529955;28;20075;-86
2023/08/25 12:08:22;;;;;;;3.97;2.20;;;;;;;;;;10550304;22;20051;-82
2023/08/25 12:13:24;;;;;;;4.80;2.10;;;;;;;;;;10540571;28;20050;-81
2023/08/25 12:18:34;;;;;;;4.63;2.00;;;;;;;;;;10569871;28;20020;-81
2023/08/25 12:23:37;;;;;;;;;;;;;;;;;;10600883;28;20435;-80
2023/08/25 12:28:43;;;;;;;3.00;1.75;;;;;;;;;;10614817;27;19910;-81
2023/08/25 12:33:44;;;;;;;3.03;1.80;;;;;;;;;;10581148;28;20091;-80
2023/08/25 12:38:45;;;;;;;3.03;1.83;;;;;;;;;;10598599;28;20111;-80
2023/08/25 12:43:49;;;;;;;2.45;1.63;;;;;;;;;;10587671;28;20020;-82
2023/08/25 12:48:51;;;;;;;4.53;1.83;;;;;;;;;;10576358;28;20475;-82
2023/08/25 12:53:56;;;;;;;3.10;1.88;;;;;;;;;;10575335;28;20043;-81
2023/08/25 12:59:19;;;;;;;2.38;1.67;;;;;;;;;;10574083;28;20030;-82
2023/08/25 13:04:20;;;;;;;4.68;1.73;;;;;;;;;;10573564;28;20023;-82
2023/08/25 13:09:27;;;;;;;4.05;1.80;;;;;;;;;;10573464;28;20034;-82
2023/08/25 13:14:30;;;;;;;3.58;1.60;;;;;;;;;;10572307;28;20031;-83
2023/08/25 13:19:31;;;;;;;2.58;1.70;;;;;;;;;;10573388;28;20019;-83
2023/08/25 13:29:55;;;;;;;2.88;2.03;;;;;;;;;;10592820;28;20572;-83
2023/08/25 13:40:46;;;;;;;2.30;1.70;;;;;;;;;;10594761;27;20107;-83
2023/08/25 13:51:10;;;;;;;3.72;2.00;;;;;;;;;;10595387;28;20028;-84
2023/08/25 13:56:31;;;;;;;3.50;1.90;;;;;;;;;;10593437;28;20126;-85
2023/08/25 14:02:12;;;;;;;4.25;2.00;;;;;;;;;;10596168;28;20020;-84
2023/08/25 14:12:56;;;;;;;4.70;1.92;;;;;;;;;;10603691;28;20055;-85
2023/08/25 14:18:13;;;;;;;3.92;2.10;;;;;;;;;;10604968;28;20087;-85
2023/08/25 14:23:14;;;;;;;3.88;2.28;;;;;;;;;;10575378;28;20028;-85
2023/08/25 14:28:40;;;;;;;3.25;1.90;;;;;;;;;;10576532;28;20024;-85
2023/08/25 14:34:21;;;;;;;4.35;2.20;;;;;;;;;;10462698;28;20037;-85
2023/08/25 14:39:30;;;;;;;5.38;3.38;;;;;;;;;;10445911;28;20492;-84
2023/08/25 14:45:02;;;;;;;3.70;1.95;;;;;;;;;;10429467;28;20076;-85
2023/08/25 14:51:02;;;;;;;3.00;1.95;;;;;;;;;;10383533;28;20140;-83
2023/08/25 15:01:34;;;;;;;3.58;2.40;;;;;;;;;;10379404;28;20041;-85
2023/08/25 15:18:14;;;;;;;3.22;2.55;;;;;;;;;;10513756;28;20039;-86
2023/08/25 15:23:24;;;;;;;2.72;2.33;;;;;;;;;;10574417;28;20402;-82
2023/08/25 15:28:27;;;;;;;3.58;2.63;;;;;;;;;;10563642;28;20031;-83
2023/08/25 15:34:02;;;;;;;3.30;2.42;;;;;;;;;;10558903;28;20092;-86
2023/08/25 15:39:05;;;;;;;4.72;3.35;;;;;;;;;;10573224;28;20038;-85
2023/08/25 15:44:17;;;;;;;4.03;3.58;;;;;;;;;;10572218;28;20034;-86
2023/08/25 15:50:06;;;;;;;3.80;3.50;;;;;;;;;;10504011;28;20071;-85
2023/08/25 16:12:49;;;;;;;4.13;3.30;;;;;;;;;;10424671;28;20025;-86
2023/08/25 16:23:48;;;;;;;5.43;3.70;;;;;;;;;;10426438;28;20037;-84
2023/08/25 17:31:45;;;;;;;7.80;5.95;;;;;;;;;;10583552;28;20379;-86
